sensor_id;sensor_type;location;lat;lon;timestamp;P1;durP1;ratioP1;P2;durP2;ratioP2
62977;SDS011;49073;42.352;23.808;2023-12-20T00:00:11;1.35;;;1.05;;
62977;SDS011;49073;42.352;23.808;2023-12-20T00:03:11;0.70;;;0.70;;
62977;SDS011;49073;42.352;23.808;2023-12-20T00:06:12;1.95;;;1.85;;
62977;SDS011;49073;42.352;23.808;2023-12-20T00:09:12;0.63;;;0.63;;
62977;SDS011;49073;42.352;23.808;2023-12-20T00:12:13;0.50;;;0.50;;
62977;SDS011;49073;42.352;23.808;2023-12-20T00:15:14;0.70;;;0.70;;
62977;SDS011;49073;42.352;23.808;2023-12-20T00:18:14;0.60;;;0.60;;
62977;SDS011;49073;42.352;23.808;2023-12-20T00:21:16;0.60;;;0.60;;
62977;SDS011;49073;42.352;23.808;2023-12-20T00:24:17;0.50;;;0.50;;
62977;SDS011;49073;42.352;23.808;2023-12-20T00:27:17;0.60;;;0.60;;
62977;SDS011;49073;42.352;23.808;2023-12-20T00:30:18;1.02;;;1.02;;
62977;SDS011;49073;42.352;23.808;2023-12-20T00:33:19;0.60;;;0.60;;
62977;SDS011;49073;42.352;23.808;2023-12-20T00:36:21;0.63;;;0.63;;
62977;SDS011;49073;42.352;23.808;2023-12-20T00:39:21;0.98;;;0.98;;
62977;SDS011;49073;42.352;23.808;2023-12-20T00:42:22;0.70;;;0.70;;
62977;SDS011;49073;42.352;23.808;2023-12-20T00:45:22;0.50;;;0.50;;
62977;SDS011;49073;42.352;23.808;2023-12-20T00:48:23;0.50;;;0.50;;
62977;SDS011;49073;42.352;23.808;2023-12-20T00:51:23;0.50;;;0.50;;
62977;SDS011;49073;42.352;23.808;2023-12-20T00:54:24;1.25;;;1.15;;
62977;SDS011;49073;42.352;23.808;2023-12-20T00:57:25;0.93;;;0.93;;
62977;SDS011;49073;42.352;23.808;2023-12-20T01:00:25;0.70;;;0.70;;
62977;SDS011;49073;42.352;23.808;2023-12-20T01:03:26;0.60;;;0.60;;
62977;SDS011;49073;42.352;23.808;2023-12-20T01:06:26;1.45;;;0.98;;
62977;SDS011;49073;42.352;23.808;2023-12-20T01:09:27;1.58;;;1.48;;
62977;SDS011;49073;42.352;23.808;2023-12-20T01:12:28;0.75;;;0.75;;
62977;SDS011;49073;42.352;23.808;2023-12-20T01:15:28;0.52;;;0.52;;
62977;SDS011;49073;42.352;23.808;2023-12-20T01:18:28;0.77;;;0.77;;
62977;SDS011;49073;42.352;23.808;2023-12-20T01:21:30;0.82;;;0.82;;
62977;SDS011;49073;42.352;23.808;2023-12-20T01:24:30;1.08;;;1.00;;
62977;SDS011;49073;42.352;23.808;2023-12-20T01:27:31;0.70;;;0.70;;
62977;SDS011;49073;42.352;23.808;2023-12-20T01:30:31;0.50;;;0.50;;
62977;SDS011;49073;42.352;23.808;2023-12-20T01:33:31;0.70;;;0.70;;
62977;SDS011;49073;42.352;23.808;2023-12-20T01:36:32;0.40;;;0.40;;
62977;SDS011;49073;42.352;23.808;2023-12-20T01:39:32;0.60;;;0.60;;
62977;SDS011;49073;42.352;23.808;2023-12-20T01:42:33;1.40;;;1.40;;
62977;SDS011;49073;42.352;23.808;2023-12-20T01:45:34;0.50;;;0.50;;
62977;SDS011;49073;42.352;23.808;2023-12-20T01:48:35;0.60;;;0.60;;
62977;SDS011;49073;42.352;23.808;2023-12-20T01:51:36;0.95;;;0.95;;
62977;SDS011;49073;42.352;23.808;2023-12-20T01:54:37;0.60;;;0.60;;
62977;SDS011;49073;42.352;23.808;2023-12-20T01:57:39;0.80;;;0.80;;
62977;SDS011;49073;42.352;23.808;2023-12-20T02:00:41;0.47;;;0.47;;
62977;SDS011;49073;42.352;23.808;2023-12-20T02:03:42;0.85;;;0.85;;
62977;SDS011;49073;42.352;23.808;2023-12-20T02:06:43;1.27;;;1.17;;
62977;SDS011;49073;42.352;23.808;2023-12-20T02:09:46;0.68;;;0.68;;
62977;SDS011;49073;42.352;23.808;2023-12-20T02:12:47;0.50;;;0.50;;
62977;SDS011;49073;42.352;23.808;2023-12-20T02:15:47;0.50;;;0.50;;
62977;SDS011;49073;42.352;23.808;2023-12-20T02:18:48;0.60;;;0.60;;
62977;SDS011;49073;42.352;23.808;2023-12-20T02:21:48;0.75;;;0.75;;
62977;SDS011;49073;42.352;23.808;2023-12-20T02:24:49;3.50;;;1.45;;
62977;SDS011;49073;42.352;23.808;2023-12-20T02:27:49;1.15;;;1.15;;
62977;SDS011;49073;42.352;23.808;2023-12-20T02:30:50;0.60;;;0.60;;
62977;SDS011;49073;42.352;23.808;2023-12-20T02:33:51;0.50;;;0.50;;
62977;SDS011;49073;42.352;23.808;2023-12-20T02:36:51;0.50;;;0.50;;
62977;SDS011;49073;42.352;23.808;2023-12-20T02:39:52;0.50;;;0.50;;
62977;SDS011;49073;42.352;23.808;2023-12-20T02:42:52;0.75;;;0.75;;
62977;SDS011;49073;42.352;23.808;2023-12-20T02:45:53;0.68;;;0.68;;
62977;SDS011;49073;42.352;23.808;2023-12-20T02:48:53;0.50;;;0.50;;
62977;SDS011;49073;42.352;23.808;2023-12-20T02:51:54;0.50;;;0.50;;
62977;SDS011;49073;42.352;23.808;2023-12-20T02:54:55;0.63;;;0.63;;
62977;SDS011;49073;42.352;23.808;2023-12-20T02:57:55;0.98;;;0.98;;
62977;SDS011;49073;42.352;23.808;2023-12-20T03:00:56;0.75;;;0.75;;
62977;SDS011;49073;42.352;23.808;2023-12-20T03:03:56;0.50;;;0.50;;
62977;SDS011;49073;42.352;23.808;2023-12-20T03:06:57;0.95;;;0.95;;
62977;SDS011;49073;42.352;23.808;2023-12-20T03:09:58;1.10;;;0.75;;
62977;SDS011;49073;42.352;23.808;2023-12-20T03:12:58;0.60;;;0.60;;
62977;SDS011;49073;42.352;23.808;2023-12-20T03:15:59;0.60;;;0.60;;
62977;SDS011;49073;42.352;23.808;2023-12-20T03:18:59;0.50;;;0.50;;
62977;SDS011;49073;42.352;23.808;2023-12-20T03:22:00;1.08;;;1.05;;
62977;SDS011;49073;42.352;23.808;2023-12-20T03:25:01;0.60;;;0.60;;
62977;SDS011;49073;42.352;23.808;2023-12-20T03:28:01;0.50;;;0.50;;
62977;SDS011;49073;42.352;23.808;2023-12-20T03:31:02;0.60;;;0.60;;
62977;SDS011;49073;42.352;23.808;2023-12-20T03:34:03;0.50;;;0.50;;
62977;SDS011;49073;42.352;23.808;2023-12-20T03:37:03;0.50;;;0.50;;
62977;SDS011;49073;42.352;23.808;2023-12-20T03:40:04;0.50;;;0.50;;
62977;SDS011;49073;42.352;23.808;2023-12-20T03:43:05;0.50;;;0.50;;
62977;SDS011;49073;42.352;23.808;2023-12-20T03:46:07;0.80;;;0.80;;
62977;SDS011;49073;42.352;23.808;2023-12-20T03:49:08;0.77;;;0.77;;
62977;SDS011;49073;42.352;23.808;2023-12-20T03:52:09;0.75;;;0.75;;
62977;SDS011;49073;42.352;23.808;2023-12-20T03:55:10;1.25;;;1.15;;
62977;SDS011;49073;42.352;23.808;2023-12-20T03:58:10;0.90;;;0.90;;
62977;SDS011;49073;42.352;23.808;2023-12-20T04:01:11;0.50;;;0.50;;
62977;SDS011;49073;42.352;23.808;2023-12-20T04:04:12;0.57;;;0.57;;
62977;SDS011;49073;42.352;23.808;2023-12-20T04:07:13;0.60;;;0.60;;
62977;SDS011;49073;42.352;23.808;2023-12-20T04:10:14;0.50;;;0.50;;
62977;SDS011;49073;42.352;23.808;2023-12-20T04:13:15;0.98;;;0.98;;
62977;SDS011;49073;42.352;23.808;2023-12-20T04:16:15;0.70;;;0.70;;
62977;SDS011;49073;42.352;23.808;2023-12-20T04:19:16;0.50;;;0.50;;
62977;SDS011;49073;42.352;23.808;2023-12-20T04:22:17;1.35;;;1.25;;
62977;SDS011;49073;42.352;23.808;2023-12-20T04:25:19;0.80;;;0.80;;
62977;SDS011;49073;42.352;23.808;2023-12-20T04:28:20;0.80;;;0.80;;
62977;SDS011;49073;42.352;23.808;2023-12-20T04:31:20;1.98;;;1.83;;
62977;SDS011;49073;42.352;23.808;2023-12-20T04:34:21;0.93;;;0.93;;
62977;SDS011;49073;42.352;23.808;2023-12-20T04:37:23;8.60;;;3.73;;
62977;SDS011;49073;42.352;23.808;2023-12-20T04:40:24;1.02;;;1.02;;
62977;SDS011;49073;42.352;23.808;2023-12-20T04:43:24;2.47;;;2.28;;
62977;SDS011;49073;42.352;23.808;2023-12-20T04:46:25;1.40;;;1.30;;
62977;SDS011;49073;42.352;23.808;2023-12-20T04:49:25;0.80;;;0.80;;
62977;SDS011;49073;42.352;23.808;2023-12-20T04:52:26;0.40;;;0.40;;
62977;SDS011;49073;42.352;23.808;2023-12-20T04:55:26;0.50;;;0.50;;
62977;SDS011;49073;42.352;23.808;2023-12-20T04:58:27;0.60;;;0.60;;
62977;SDS011;49073;42.352;23.808;2023-12-20T05:01:27;2.90;;;0.73;;
62977;SDS011;49073;42.352;23.808;2023-12-20T05:04:28;0.80;;;0.80;;
62977;SDS011;49073;42.352;23.808;2023-12-20T05:07:28;0.50;;;0.50;;
62977;SDS011;49073;42.352;23.808;2023-12-20T05:10:29;0.70;;;0.70;;
62977;SDS011;49073;42.352;23.808;2023-12-20T05:13:29;0.50;;;0.50;;
62977;SDS011;49073;42.352;23.808;2023-12-20T05:16:30;0.50;;;0.50;;
62977;SDS011;49073;42.352;23.808;2023-12-20T05:19:30;1.07;;;1.07;;
62977;SDS011;49073;42.352;23.808;2023-12-20T05:22:31;0.90;;;0.90;;
62977;SDS011;49073;42.352;23.808;2023-12-20T05:25:31;0.80;;;0.80;;
62977;SDS011;49073;42.352;23.808;2023-12-20T05:28:32;0.43;;;0.43;;
62977;SDS011;49073;42.352;23.808;2023-12-20T05:31:32;0.50;;;0.50;;
62977;SDS011;49073;42.352;23.808;2023-12-20T05:34:33;2.63;;;1.07;;
62977;SDS011;49073;42.352;23.808;2023-12-20T05:37:33;0.50;;;0.50;;
62977;SDS011;49073;42.352;23.808;2023-12-20T05:40:34;0.50;;;0.50;;
62977;SDS011;49073;42.352;23.808;2023-12-20T05:43:34;0.50;;;0.50;;
62977;SDS011;49073;42.352;23.808;2023-12-20T05:46:35;0.63;;;0.63;;
62977;SDS011;49073;42.352;23.808;2023-12-20T05:49:36;0.80;;;0.80;;
62977;SDS011;49073;42.352;23.808;2023-12-20T05:52:37;0.50;;;0.50;;
62977;SDS011;49073;42.352;23.808;2023-12-20T05:55:37;0.50;;;0.50;;
62977;SDS011;49073;42.352;23.808;2023-12-20T05:58:38;0.47;;;0.47;;
62977;SDS011;49073;42.352;23.808;2023-12-20T06:01:39;6.73;;;0.93;;
62977;SDS011;49073;42.352;23.808;2023-12-20T06:04:42;0.80;;;0.80;;
62977;SDS011;49073;42.352;23.808;2023-12-20T06:07:43;0.50;;;0.50;;
62977;SDS011;49073;42.352;23.808;2023-12-20T06:10:47;0.90;;;0.87;;
62977;SDS011;49073;42.352;23.808;2023-12-20T06:13:47;0.40;;;0.40;;
62977;SDS011;49073;42.352;23.808;2023-12-20T06:16:49;1.87;;;1.63;;
62977;SDS011;49073;42.352;23.808;2023-12-20T06:19:50;0.70;;;0.70;;
62977;SDS011;49073;42.352;23.808;2023-12-20T06:22:55;1.67;;;0.77;;
62977;SDS011;49073;42.352;23.808;2023-12-20T06:25:56;0.50;;;0.50;;
62977;SDS011;49073;42.352;23.808;2023-12-20T06:28:56;0.50;;;0.50;;
62977;SDS011;49073;42.352;23.808;2023-12-20T06:31:57;0.50;;;0.50;;
62977;SDS011;49073;42.352;23.808;2023-12-20T06:34:57;1.30;;;0.57;;
62977;SDS011;49073;42.352;23.808;2023-12-20T06:40:52;0.68;;;0.68;;
62977;SDS011;49073;42.352;23.808;2023-12-20T06:43:53;0.52;;;0.52;;
62977;SDS011;49073;42.352;23.808;2023-12-20T06:46:53;0.50;;;0.50;;
62977;SDS011;49073;42.352;23.808;2023-12-20T06:49:54;0.82;;;0.82;;
62977;SDS011;49073;42.352;23.808;2023-12-20T06:52:54;1.27;;;1.00;;
62977;SDS011;49073;42.352;23.808;2023-12-20T06:55:55;0.55;;;0.55;;
62977;SDS011;49073;42.352;23.808;2023-12-20T06:58:56;0.57;;;0.57;;
62977;SDS011;49073;42.352;23.808;2023-12-20T07:01:56;0.75;;;0.75;;
62977;SDS011;49073;42.352;23.808;2023-12-20T07:04:57;3.53;;;1.95;;
62977;SDS011;49073;42.352;23.808;2023-12-20T07:07:58;0.50;;;0.50;;
62977;SDS011;49073;42.352;23.808;2023-12-20T07:10:58;0.68;;;0.68;;
62977;SDS011;49073;42.352;23.808;2023-12-20T07:13:59;1.65;;;1.05;;
62977;SDS011;49073;42.352;23.808;2023-12-20T07:16:59;0.70;;;0.70;;
62977;SDS011;49073;42.352;23.808;2023-12-20T07:20:00;0.85;;;0.85;;
62977;SDS011;49073;42.352;23.808;2023-12-20T07:23:03;9.60;;;6.22;;
62977;SDS011;49073;42.352;23.808;2023-12-20T07:26:04;15.85;;;8.57;;
62977;SDS011;49073;42.352;23.808;2023-12-20T07:29:04;7.75;;;5.82;;
62977;SDS011;49073;42.352;23.808;2023-12-20T07:32:05;5.90;;;4.82;;
62977;SDS011;49073;42.352;23.808;2023-12-20T07:35:06;2.40;;;2.17;;
62977;SDS011;49073;42.352;23.808;2023-12-20T07:38:07;2.10;;;2.00;;
62977;SDS011;49073;42.352;23.808;2023-12-20T07:41:09;1.98;;;1.85;;
62977;SDS011;49073;42.352;23.808;2023-12-20T07:44:10;2.17;;;2.00;;
62977;SDS011;49073;42.352;23.808;2023-12-20T07:47:10;1.90;;;1.80;;
62977;SDS011;49073;42.352;23.808;2023-12-20T07:50:13;0.50;;;0.50;;
62977;SDS011;49073;42.352;23.808;2023-12-20T07:53:13;0.50;;;0.50;;
62977;SDS011;49073;42.352;23.808;2023-12-20T07:56:17;5.88;;;1.38;;
62977;SDS011;49073;42.352;23.808;2023-12-20T07:59:19;0.50;;;0.50;;
62977;SDS011;49073;42.352;23.808;2023-12-20T08:02:19;0.68;;;0.68;;
62977;SDS011;49073;42.352;23.808;2023-12-20T08:05:20;0.70;;;0.70;;
62977;SDS011;49073;42.352;23.808;2023-12-20T08:08:20;0.65;;;0.65;;
62977;SDS011;49073;42.352;23.808;2023-12-20T08:11:21;1.85;;;1.75;;
62977;SDS011;49073;42.352;23.808;2023-12-20T08:14:22;3.28;;;2.05;;
62977;SDS011;49073;42.352;23.808;2023-12-20T08:17:22;3.22;;;2.28;;
62977;SDS011;49073;42.352;23.808;2023-12-20T08:20:23;1.10;;;1.10;;
62977;SDS011;49073;42.352;23.808;2023-12-20T08:23:24;4.68;;;2.58;;
62977;SDS011;49073;42.352;23.808;2023-12-20T08:26:25;1.63;;;1.52;;
62977;SDS011;49073;42.352;23.808;2023-12-20T08:29:26;1.58;;;1.48;;
62977;SDS011;49073;42.352;23.808;2023-12-20T08:32:26;1.42;;;1.35;;
62977;SDS011;49073;42.352;23.808;2023-12-20T08:35:27;0.95;;;0.95;;
62977;SDS011;49073;42.352;23.808;2023-12-20T08:38:27;0.90;;;0.90;;
62977;SDS011;49073;42.352;23.808;2023-12-20T08:41:28;0.77;;;0.63;;
62977;SDS011;49073;42.352;23.808;2023-12-20T08:44:29;1.20;;;1.15;;
62977;SDS011;49073;42.352;23.808;2023-12-20T08:47:30;0.68;;;0.68;;
62977;SDS011;49073;42.352;23.808;2023-12-20T08:50:30;0.90;;;0.90;;
62977;SDS011;49073;42.352;23.808;2023-12-20T08:53:31;1.05;;;1.05;;
62977;SDS011;49073;42.352;23.808;2023-12-20T08:56:32;1.35;;;1.25;;
62977;SDS011;49073;42.352;23.808;2023-12-20T08:59:32;1.27;;;1.17;;
62977;SDS011;49073;42.352;23.808;2023-12-20T09:02:33;0.60;;;0.60;;
62977;SDS011;49073;42.352;23.808;2023-12-20T09:05:36;0.90;;;0.90;;
62977;SDS011;49073;42.352;23.808;2023-12-20T09:08:36;1.15;;;1.10;;
62977;SDS011;49073;42.352;23.808;2023-12-20T09:11:37;1.33;;;1.27;;
62977;SDS011;49073;42.352;23.808;2023-12-20T09:14:37;0.70;;;0.70;;
62977;SDS011;49073;42.352;23.808;2023-12-20T09:17:38;0.95;;;0.95;;
62977;SDS011;49073;42.352;23.808;2023-12-20T09:20:39;1.15;;;1.15;;
62977;SDS011;49073;42.352;23.808;2023-12-20T09:23:40;0.75;;;0.75;;
62977;SDS011;49073;42.352;23.808;2023-12-20T09:26:40;1.38;;;1.27;;
62977;SDS011;49073;42.352;23.808;2023-12-20T09:29:43;1.95;;;1.70;;
62977;SDS011;49073;42.352;23.808;2023-12-20T09:32:44;1.08;;;0.98;;
62977;SDS011;49073;42.352;23.808;2023-12-20T09:35:45;1.48;;;1.38;;
62977;SDS011;49073;42.352;23.808;2023-12-20T09:38:45;1.88;;;1.77;;
62977;SDS011;49073;42.352;23.808;2023-12-20T09:41:49;3.60;;;3.28;;
62977;SDS011;49073;42.352;23.808;2023-12-20T09:44:59;0.80;;;0.80;;
62977;SDS011;49073;42.352;23.808;2023-12-20T09:48:04;1.83;;;1.70;;
62977;SDS011;49073;42.352;23.808;2023-12-20T09:51:04;0.98;;;0.93;;
62977;SDS011;49073;42.352;23.808;2023-12-20T09:54:05;0.60;;;0.60;;
62977;SDS011;49073;42.352;23.808;2023-12-20T09:57:05;2.75;;;1.50;;
62977;SDS011;49073;42.352;23.808;2023-12-20T10:00:06;6.28;;;3.17;;
62977;SDS011;49073;42.352;23.808;2023-12-20T10:03:07;1.05;;;1.05;;
62977;SDS011;49073;42.352;23.808;2023-12-20T10:06:08;3.75;;;3.22;;
62977;SDS011;49073;42.352;23.808;2023-12-20T10:09:10;2.10;;;1.90;;
62977;SDS011;49073;42.352;23.808;2023-12-20T10:12:12;1.73;;;1.63;;
62977;SDS011;49073;42.352;23.808;2023-12-20T10:15:12;0.73;;;0.73;;
62977;SDS011;49073;42.352;23.808;2023-12-20T10:18:12;1.55;;;1.45;;
62977;SDS011;49073;42.352;23.808;2023-12-20T10:21:13;0.63;;;0.63;;
62977;SDS011;49073;42.352;23.808;2023-12-20T10:24:17;0.70;;;0.70;;
62977;SDS011;49073;42.352;23.808;2023-12-20T10:27:18;0.90;;;0.90;;
62977;SDS011;49073;42.352;23.808;2023-12-20T10:30:19;1.30;;;1.30;;
62977;SDS011;49073;42.352;23.808;2023-12-20T10:33:26;1.95;;;1.15;;
62977;SDS011;49073;42.352;23.808;2023-12-20T10:36:35;1.20;;;1.20;;
62977;SDS011;49073;42.352;23.808;2023-12-20T10:39:36;0.70;;;0.70;;
62977;SDS011;49073;42.352;23.808;2023-12-20T10:42:38;0.85;;;0.80;;
62977;SDS011;49073;42.352;23.808;2023-12-20T10:45:41;2.22;;;2.03;;
62977;SDS011;49073;42.352;23.808;2023-12-20T10:48:45;1.13;;;1.13;;
62977;SDS011;49073;42.352;23.808;2023-12-20T10:51:47;1.02;;;1.02;;
62977;SDS011;49073;42.352;23.808;2023-12-20T10:54:48;0.93;;;0.93;;
62977;SDS011;49073;42.352;23.808;2023-12-20T10:57:49;1.83;;;1.73;;
62977;SDS011;49073;42.352;23.808;2023-12-20T11:00:51;2.03;;;1.40;;
62977;SDS011;49073;42.352;23.808;2023-12-20T11:03:59;3.30;;;2.35;;
62977;SDS011;49073;42.352;23.808;2023-12-20T11:07:23;1.05;;;1.05;;
62977;SDS011;49073;42.352;23.808;2023-12-20T11:10:23;4.07;;;2.85;;
62977;SDS011;49073;42.352;23.808;2023-12-20T11:13:40;2.50;;;1.20;;
62977;SDS011;49073;42.352;23.808;2023-12-20T11:16:48;2.15;;;1.65;;
62977;SDS011;49073;42.352;23.808;2023-12-20T11:22:58;1.38;;;1.27;;
62977;SDS011;49073;42.352;23.808;2023-12-20T11:25:58;0.88;;;0.82;;
62977;SDS011;49073;42.352;23.808;2023-12-20T11:32:33;1.00;;;1.00;;
62977;SDS011;49073;42.352;23.808;2023-12-20T11:35:34;3.00;;;1.27;;
62977;SDS011;49073;42.352;23.808;2023-12-20T11:38:36;1.75;;;0.98;;
62977;SDS011;49073;42.352;23.808;2023-12-20T11:41:37;1.08;;;1.05;;
62977;SDS011;49073;42.352;23.808;2023-12-20T11:44:38;1.67;;;1.50;;
62977;SDS011;49073;42.352;23.808;2023-12-20T11:47:38;1.00;;;1.00;;
62977;SDS011;49073;42.352;23.808;2023-12-20T11:50:39;0.90;;;0.85;;
62977;SDS011;49073;42.352;23.808;2023-12-20T11:53:40;0.75;;;0.75;;
62977;SDS011;49073;42.352;23.808;2023-12-20T11:56:42;0.88;;;0.73;;
62977;SDS011;49073;42.352;23.808;2023-12-20T11:59:43;0.88;;;0.88;;
62977;SDS011;49073;42.352;23.808;2023-12-20T12:02:43;0.85;;;0.85;;
62977;SDS011;49073;42.352;23.808;2023-12-20T12:05:54;1.40;;;1.33;;
62977;SDS011;49073;42.352;23.808;2023-12-20T12:08:55;2.85;;;2.25;;
62977;SDS011;49073;42.352;23.808;2023-12-20T12:11:55;3.67;;;3.00;;
62977;SDS011;49073;42.352;23.808;2023-12-20T12:14:56;2.58;;;2.42;;
62977;SDS011;49073;42.352;23.808;2023-12-20T12:17:57;1.52;;;1.42;;
62977;SDS011;49073;42.352;23.808;2023-12-20T12:21:02;1.52;;;1.35;;
62977;SDS011;49073;42.352;23.808;2023-12-20T12:24:06;3.75;;;1.27;;
62977;SDS011;49073;42.352;23.808;2023-12-20T12:27:08;1.42;;;1.30;;
62977;SDS011;49073;42.352;23.808;2023-12-20T12:30:09;1.50;;;1.25;;
62977;SDS011;49073;42.352;23.808;2023-12-20T12:33:10;2.83;;;2.55;;
62977;SDS011;49073;42.352;23.808;2023-12-20T12:36:12;1.80;;;1.70;;
62977;SDS011;49073;42.352;23.808;2023-12-20T12:39:12;3.08;;;1.58;;
62977;SDS011;49073;42.352;23.808;2023-12-20T12:42:15;1.80;;;1.60;;
62977;SDS011;49073;42.352;23.808;2023-12-20T12:45:16;1.42;;;1.33;;
62977;SDS011;49073;42.352;23.808;2023-12-20T12:48:16;10.77;;;1.55;;
62977;SDS011;49073;42.352;23.808;2023-12-20T12:51:17;1.58;;;1.48;;
62977;SDS011;49073;42.352;23.808;2023-12-20T12:54:18;2.50;;;1.90;;
62977;SDS011;49073;42.352;23.808;2023-12-20T12:57:20;1.10;;;1.10;;
62977;SDS011;49073;42.352;23.808;2023-12-20T13:00:22;1.52;;;1.42;;
62977;SDS011;49073;42.352;23.808;2023-12-20T13:03:22;0.75;;;0.75;;
62977;SDS011;49073;42.352;23.808;2023-12-20T13:06:24;0.73;;;0.73;;
62977;SDS011;49073;42.352;23.808;2023-12-20T13:09:24;3.20;;;1.42;;
62977;SDS011;49073;42.352;23.808;2023-12-20T13:12:25;0.70;;;0.70;;
62977;SDS011;49073;42.352;23.808;2023-12-20T13:15:25;1.30;;;1.20;;
62977;SDS011;49073;42.352;23.808;2023-12-20T13:18:26;0.90;;;0.85;;
62977;SDS011;49073;42.352;23.808;2023-12-20T13:21:26;1.13;;;1.13;;
62977;SDS011;49073;42.352;23.808;2023-12-20T13:24:28;1.13;;;1.13;;
62977;SDS011;49073;42.352;23.808;2023-12-20T13:27:29;1.05;;;1.05;;
62977;SDS011;49073;42.352;23.808;2023-12-20T13:30:29;1.17;;;1.02;;
62977;SDS011;49073;42.352;23.808;2023-12-20T13:33:30;0.50;;;0.50;;
62977;SDS011;49073;42.352;23.808;2023-12-20T13:36:31;0.60;;;0.60;;
62977;SDS011;49073;42.352;23.808;2023-12-20T13:39:31;0.95;;;0.95;;
62977;SDS011;49073;42.352;23.808;2023-12-20T13:42:32;0.80;;;0.80;;
62977;SDS011;49073;42.352;23.808;2023-12-20T13:45:32;0.75;;;0.75;;
62977;SDS011;49073;42.352;23.808;2023-12-20T13:48:33;0.60;;;0.60;;
62977;SDS011;49073;42.352;23.808;2023-12-20T13:51:33;0.50;;;0.50;;
62977;SDS011;49073;42.352;23.808;2023-12-20T13:54:34;0.60;;;0.60;;
62977;SDS011;49073;42.352;23.808;2023-12-20T13:57:35;5.68;;;1.00;;
62977;SDS011;49073;42.352;23.808;2023-12-20T14:00:37;0.80;;;0.80;;
62977;SDS011;49073;42.352;23.808;2023-12-20T14:03:38;1.13;;;0.65;;
62977;SDS011;49073;42.352;23.808;2023-12-20T14:06:39;1.70;;;1.60;;
62977;SDS011;49073;42.352;23.808;2023-12-20T14:09:40;0.65;;;0.65;;
62977;SDS011;49073;42.352;23.808;2023-12-20T14:12:45;0.50;;;0.50;;
62977;SDS011;49073;42.352;23.808;2023-12-20T14:15:46;1.27;;;0.88;;
62977;SDS011;49073;42.352;23.808;2023-12-20T14:18:47;0.50;;;0.50;;
62977;SDS011;49073;42.352;23.808;2023-12-20T14:21:47;0.60;;;0.60;;
62977;SDS011;49073;42.352;23.808;2023-12-20T14:24:48;0.57;;;0.57;;
62977;SDS011;49073;42.352;23.808;2023-12-20T14:27:49;0.43;;;0.43;;
62977;SDS011;49073;42.352;23.808;2023-12-20T14:30:49;0.70;;;0.70;;
62977;SDS011;49073;42.352;23.808;2023-12-20T14:33:50;0.60;;;0.60;;
62977;SDS011;49073;42.352;23.808;2023-12-20T14:36:53;1.45;;;1.35;;
62977;SDS011;49073;42.352;23.808;2023-12-20T14:39:53;1.17;;;1.13;;
62977;SDS011;49073;42.352;23.808;2023-12-20T14:42:54;0.60;;;0.60;;
62977;SDS011;49073;42.352;23.808;2023-12-20T14:45:55;1.52;;;0.55;;
62977;SDS011;49073;42.352;23.808;2023-12-20T14:48:56;0.50;;;0.50;;
62977;SDS011;49073;42.352;23.808;2023-12-20T14:51:56;0.55;;;0.55;;
62977;SDS011;49073;42.352;23.808;2023-12-20T14:54:56;0.50;;;0.50;;
62977;SDS011;49073;42.352;23.808;2023-12-20T14:57:57;3.50;;;0.85;;
62977;SDS011;49073;42.352;23.808;2023-12-20T15:00:58;0.65;;;0.65;;
62977;SDS011;49073;42.352;23.808;2023-12-20T15:03:58;0.60;;;0.60;;
62977;SDS011;49073;42.352;23.808;2023-12-20T15:06:59;0.60;;;0.60;;
62977;SDS011;49073;42.352;23.808;2023-12-20T15:10:01;0.75;;;0.75;;
62977;SDS011;49073;42.352;23.808;2023-12-20T15:13:01;0.50;;;0.50;;
62977;SDS011;49073;42.352;23.808;2023-12-20T15:16:03;0.55;;;0.55;;
62977;SDS011;49073;42.352;23.808;2023-12-20T15:19:04;0.60;;;0.60;;
62977;SDS011;49073;42.352;23.808;2023-12-20T15:22:06;0.70;;;0.70;;
62977;SDS011;49073;42.352;23.808;2023-12-20T15:25:06;0.50;;;0.50;;
62977;SDS011;49073;42.352;23.808;2023-12-20T15:28:09;0.60;;;0.60;;
62977;SDS011;49073;42.352;23.808;2023-12-20T15:31:11;0.50;;;0.50;;
62977;SDS011;49073;42.352;23.808;2023-12-20T15:34:12;0.47;;;0.47;;
62977;SDS011;49073;42.352;23.808;2023-12-20T15:37:13;0.50;;;0.50;;
62977;SDS011;49073;42.352;23.808;2023-12-20T15:40:14;0.70;;;0.70;;
62977;SDS011;49073;42.352;23.808;2023-12-20T15:43:15;0.50;;;0.50;;
62977;SDS011;49073;42.352;23.808;2023-12-20T15:46:16;0.40;;;0.40;;
62977;SDS011;49073;42.352;23.808;2023-12-20T15:49:16;0.63;;;0.63;;
62977;SDS011;49073;42.352;23.808;2023-12-20T15:52:18;0.50;;;0.50;;
62977;SDS011;49073;42.352;23.808;2023-12-20T15:55:19;0.55;;;0.55;;
62977;SDS011;49073;42.352;23.808;2023-12-20T15:58:20;0.55;;;0.55;;
62977;SDS011;49073;42.352;23.808;2023-12-20T16:01:20;0.50;;;0.50;;
62977;SDS011;49073;42.352;23.808;2023-12-20T16:04:21;0.57;;;0.57;;
62977;SDS011;49073;42.352;23.808;2023-12-20T16:07:21;0.50;;;0.50;;
62977;SDS011;49073;42.352;23.808;2023-12-20T16:10:22;1.27;;;1.17;;
62977;SDS011;49073;42.352;23.808;2023-12-20T16:13:22;0.60;;;0.60;;
62977;SDS011;49073;42.352;23.808;2023-12-20T16:16:23;0.60;;;0.60;;
62977;SDS011;49073;42.352;23.808;2023-12-20T16:19:24;0.80;;;0.80;;
62977;SDS011;49073;42.352;23.808;2023-12-20T16:22:25;0.85;;;0.85;;
62977;SDS011;49073;42.352;23.808;2023-12-20T16:25:26;0.50;;;0.50;;
62977;SDS011;49073;42.352;23.808;2023-12-20T16:28:27;0.93;;;0.93;;
62977;SDS011;49073;42.352;23.808;2023-12-20T16:31:27;0.60;;;0.60;;
62977;SDS011;49073;42.352;23.808;2023-12-20T16:34:28;0.50;;;0.50;;
62977;SDS011;49073;42.352;23.808;2023-12-20T16:37:28;0.50;;;0.50;;
62977;SDS011;49073;42.352;23.808;2023-12-20T16:40:29;0.57;;;0.57;;
62977;SDS011;49073;42.352;23.808;2023-12-20T16:43:29;1.13;;;1.08;;
62977;SDS011;49073;42.352;23.808;2023-12-20T16:46:30;1.20;;;1.20;;
62977;SDS011;49073;42.352;23.808;2023-12-20T16:49:30;0.65;;;0.65;;
62977;SDS011;49073;42.352;23.808;2023-12-20T16:52:31;0.80;;;0.80;;
62977;SDS011;49073;42.352;23.808;2023-12-20T16:55:32;0.55;;;0.55;;
62977;SDS011;49073;42.352;23.808;2023-12-20T16:58:33;1.52;;;1.42;;
62977;SDS011;49073;42.352;23.808;2023-12-20T17:01:34;2.20;;;1.13;;
62977;SDS011;49073;42.352;23.808;2023-12-20T17:04:35;0.88;;;0.88;;
62977;SDS011;49073;42.352;23.808;2023-12-20T17:07:36;0.95;;;0.93;;
62977;SDS011;49073;42.352;23.808;2023-12-20T17:10:36;1.00;;;1.00;;
62977;SDS011;49073;42.352;23.808;2023-12-20T17:13:37;4.25;;;1.23;;
62977;SDS011;49073;42.352;23.808;2023-12-20T17:16:37;1.35;;;1.35;;
62977;SDS011;49073;42.352;23.808;2023-12-20T17:19:38;0.80;;;0.80;;
62977;SDS011;49073;42.352;23.808;2023-12-20T17:22:39;1.52;;;1.38;;
62977;SDS011;49073;42.352;23.808;2023-12-20T17:25:40;0.70;;;0.70;;
62977;SDS011;49073;42.352;23.808;2023-12-20T17:28:40;1.10;;;1.10;;
62977;SDS011;49073;42.352;23.808;2023-12-20T17:31:42;1.77;;;1.67;;
62977;SDS011;49073;42.352;23.808;2023-12-20T17:34:42;0.63;;;0.63;;
62977;SDS011;49073;42.352;23.808;2023-12-20T17:37:43;0.80;;;0.80;;
62977;SDS011;49073;42.352;23.808;2023-12-20T17:40:43;7.40;;;2.38;;
62977;SDS011;49073;42.352;23.808;2023-12-20T17:43:44;1.95;;;1.65;;
62977;SDS011;49073;42.352;23.808;2023-12-20T17:46:46;1.30;;;1.25;;
62977;SDS011;49073;42.352;23.808;2023-12-20T17:49:47;1.10;;;1.10;;
62977;SDS011;49073;42.352;23.808;2023-12-20T17:52:48;0.55;;;0.55;;
62977;SDS011;49073;42.352;23.808;2023-12-20T17:55:49;0.80;;;0.80;;
62977;SDS011;49073;42.352;23.808;2023-12-20T17:58:49;2.17;;;0.95;;
62977;SDS011;49073;42.352;23.808;2023-12-20T18:01:51;1.23;;;1.23;;